Time;durP1;ratioP1;P1;durP2;ratioP2;P2;SDS_P1;SDS_P2;PMS_P1;PMS_P2;Temp;Humidity;BMP_temperature;BMP_pressure;BME280_temperature;BME280_humidity;BME280_pressure;Samples;Min_cycle;Max_cycle;Signal;HPM_P1;HPM_P2
2024/01/18 00:01:51;;;;;;;19.15;10.70;;;1.40;83.90;;;;;;5051647;28;20056;-34
2024/01/18 00:04:17;;;;;;;17.80;10.57;;;1.50;83.90;;;;;;5051589;28;20064;-32
2024/01/18 00:06:42;;;;;;;19.20;10.02;;;1.50;84.00;;;;;;5051487;28;20032;-32
2024/01/18 00:09:08;;;;;;;16.55;10.20;;;1.50;84.10;;;;;;5051847;28;20033;-31
2024/01/18 00:11:33;;;;;;;18.42;10.30;;;1.50;84.10;;;;;;5051875;28;20482;-31
2024/01/18 00:14:00;;;;;;;17.48;10.10;;;1.60;84.10;;;;;;5051553;28;20100;-32
2024/01/18 00:16:26;;;;;;;18.60;10.43;;;1.60;84.10;;;;;;5051662;28;20028;-30
2024/01/18 00:18:51;;;;;;;15.68;10.40;;;1.60;84.10;;;;;;5051557;28;20124;-31
2024/01/18 00:21:17;;;;;;;16.23;10.55;;;1.70;84.00;;;;;;5051429;28;20048;-32
2024/01/18 00:23:42;;;;;;;18.83;10.60;;;1.70;84.00;;;;;;5050505;28;20025;-31
2024/01/18 00:26:09;;;;;;;18.67;9.93;;;1.70;84.10;;;;;;5051667;28;20028;-31
2024/01/18 00:28:34;;;;;;;14.85;10.40;;;1.70;84.10;;;;;;5051544;28;20370;-32
2024/01/18 00:31:00;;;;;;;18.20;10.25;;;1.70;84.10;;;;;;5051276;28;20051;-34
2024/01/18 00:33:26;;;;;;;15.60;10.57;;;1.70;84.10;;;;;;5051275;28;20045;-32
2024/01/18 00:35:51;;;;;;;15.43;9.90;;;1.70;84.10;;;;;;5051236;28;20025;-35
2024/01/18 00:38:17;;;;;;;14.38;9.90;;;1.60;84.10;;;;;;5051181;28;20027;-39
2024/01/18 00:40:42;;;;;;;18.20;10.63;;;1.60;84.20;;;;;;5051254;28;20053;-32
2024/01/18 00:43:08;;;;;;;16.95;10.45;;;1.50;84.20;;;;;;5051188;28;20033;-36
2024/01/18 00:45:33;;;;;;;17.73;11.57;;;1.50;84.40;;;;;;5051272;28;20052;-40
2024/01/18 00:47:59;;;;;;;16.52;10.75;;;1.40;84.40;;;;;;5050987;28;20060;-34
2024/01/18 00:50:24;;;;;;;19.73;11.43;;;1.40;84.60;;;;;;5051217;28;20044;-30
2024/01/18 00:52:50;;;;;;;17.00;11.07;;;1.30;84.60;;;;;;5051112;28;20197;-33
2024/01/18 00:55:15;;;;;;;19.45;11.30;;;1.30;84.70;;;;;;5053028;28;20025;-33
2024/01/18 00:57:42;;;;;;;15.88;10.57;;;1.30;84.80;;;;;;5055059;28;20108;-33
2024/01/18 01:00:08;;;;;;;20.50;12.10;;;1.30;84.90;;;;;;5055359;28;20025;-32
2024/01/18 01:02:34;;;;;;;17.83;12.70;;;1.30;85.00;;;;;;5054956;28;20037;-31
2024/01/18 01:04:59;;;;;;;16.10;10.90;;;1.30;85.00;;;;;;5054909;28;20405;-31
2024/01/18 01:07:25;;;;;;;16.35;11.70;;;1.20;85.10;;;;;;5054695;28;20029;-32
2024/01/18 01:09:50;;;;;;;18.08;11.98;;;1.20;85.20;;;;;;5055167;28;20020;-32
2024/01/18 01:12:16;;;;;;;18.30;11.35;;;1.20;85.30;;;;;;5053505;28;20053;-30
2024/01/18 01:14:42;;;;;;;19.52;12.82;;;1.20;85.40;;;;;;5054571;28;20075;-31
2024/01/18 01:17:07;;;;;;;20.80;13.25;;;1.20;85.50;;;;;;5055005;28;20021;-31
2024/01/18 01:19:33;;;;;;;16.48;11.95;;;1.10;85.60;;;;;;5053443;28;20512;-31
2024/01/18 01:21:58;;;;;;;19.73;12.02;;;1.10;85.60;;;;;;5054878;28;20496;-31
2024/01/18 01:24:24;;;;;;;19.13;12.10;;;1.10;85.70;;;;;;5054685;28;20029;-32
2024/01/18 01:26:50;;;;;;;22.38;13.00;;;1.10;85.80;;;;;;5054699;28;20017;-32
2024/01/18 01:29:16;;;;;;;18.60;12.52;;;1.10;85.80;;;;;;5053192;28;20067;-33
2024/01/18 01:31:42;;;;;;;22.13;13.73;;;1.00;85.80;;;;;;5053216;28;20067;-32
2024/01/18 01:34:07;;;;;;;22.20;12.48;;;1.00;85.90;;;;;;5054628;28;20044;-32
2024/01/18 01:36:33;;;;;;;22.08;14.23;;;1.00;86.00;;;;;;5054496;28;20118;-33
2024/01/18 01:38:58;;;;;;;21.25;12.82;;;1.00;86.10;;;;;;5053203;28;20032;-34
2024/01/18 01:41:24;;;;;;;23.10;13.65;;;1.00;86.20;;;;;;5054266;28;20029;-35
2024/01/18 01:44:00;;;;;;;18.20;12.73;;;1.00;86.30;;;;;;5054287;28;20025;-32
2024/01/18 01:46:27;;;;;;;20.05;13.00;;;1.00;86.40;;;;;;5054141;28;20091;-30
2024/01/18 01:48:59;;;;;;;24.30;14.02;;;1.00;86.50;;;;;;5054561;28;20497;-32
2024/01/18 01:51:25;;;;;;;20.30;12.85;;;1.00;86.50;;;;;;5054149;28;20051;-31
2024/01/18 01:53:52;;;;;;;19.98;13.00;;;0.90;86.50;;;;;;5054177;28;20024;-30
2024/01/18 01:56:18;;;;;;;24.85;14.38;;;0.90;86.80;;;;;;5054106;28;20412;-31
2024/01/18 01:58:44;;;;;;;23.50;13.75;;;0.80;86.80;;;;;;5053910;28;20031;-31
2024/01/18 02:01:10;;;;;;;21.05;14.38;;;0.70;86.90;;;;;;5053644;28;20025;-33
2024/01/18 02:03:36;;;;;;;25.85;15.32;;;0.70;87.10;;;;;;5053824;28;20059;-34
2024/01/18 02:06:02;;;;;;;23.83;15.13;;;0.70;87.20;;;;;;5052957;28;20036;-32
2024/01/18 02:08:28;;;;;;;23.48;14.65;;;0.60;87.40;;;;;;5054033;28;20021;-32
2024/01/18 02:10:54;;;;;;;21.45;13.50;;;0.60;87.50;;;;;;5053904;28;20021;-33
2024/01/18 02:13:22;;;;;;;24.67;14.45;;;0.60;87.50;;;;;;5054011;28;20078;-31
2024/01/18 02:15:47;;;;;;;24.05;15.00;;;0.60;87.70;;;;;;5053709;28;20070;-31
2024/01/18 02:18:13;;;;;;;21.90;13.80;;;0.60;87.70;;;;;;5053822;28;20017;-34
2024/01/18 02:20:38;;;;;;;25.42;14.40;;;0.60;87.90;;;;;;5053704;28;20481;-30
2024/01/18 02:23:06;;;;;;;19.65;12.55;;;0.50;87.90;;;;;;5053580;28;20029;-31
2024/01/18 02:25:31;;;;;;;23.13;14.68;;;0.50;87.90;;;;;;5053423;28;20029;-34
2024/01/18 02:27:58;;;;;;;22.65;14.52;;;0.50;88.00;;;;;;5053587;28;20564;-34
2024/01/18 02:30:24;;;;;;;20.27;12.55;;;0.50;88.00;;;;;;5053403;28;20100;-32
2024/01/18 02:32:49;;;;;;;21.92;14.15;;;0.40;88.20;;;;;;5053272;28;20107;-35
2024/01/18 02:35:16;;;;;;;21.38;13.23;;;0.50;88.20;;;;;;5053144;28;20040;-32
2024/01/18 02:37:42;;;;;;;28.23;13.75;;;0.40;88.20;;;;;;5053053;28;20025;-30
2024/01/18 02:40:08;;;;;;;22.08;14.00;;;0.40;88.40;;;;;;5053142;28;20123;-30
2024/01/18 02:42:34;;;;;;;20.45;13.20;;;0.40;88.40;;;;;;5053399;28;20021;-31
2024/01/18 02:45:02;;;;;;;22.48;12.85;;;0.40;88.50;;;;;;5053207;28;20436;-31
2024/01/18 02:47:28;;;;;;;25.48;13.55;;;0.40;88.60;;;;;;5053257;28;20029;-32
2024/01/18 02:49:56;;;;;;;19.60;12.57;;;0.40;88.60;;;;;;5053005;28;20044;-33
2024/01/18 02:52:21;;;;;;;23.20;13.68;;;0.40;88.60;;;;;;5052870;28;20020;-33
2024/01/18 02:54:47;;;;;;;24.83;13.52;;;0.40;88.60;;;;;;5052941;28;20100;-35
2024/01/18 02:57:12;;;;;;;22.58;13.05;;;0.30;88.60;;;;;;5052676;28;20020;-31
2024/01/18 02:59:38;;;;;;;23.45;14.40;;;0.30;88.70;;;;;;5052855;28;20032;-30
2024/01/18 03:02:03;;;;;;;23.00;12.55;;;0.30;88.80;;;;;;5052649;28;20029;-30
2024/01/18 03:04:29;;;;;;;18.38;12.02;;;0.30;88.80;;;;;;5052999;28;20036;-30
2024/01/18 03:06:54;;;;;;;21.55;12.52;;;0.30;88.90;;;;;;5052506;28;20029;-32
2024/01/18 03:09:20;;;;;;;18.65;11.63;;;0.30;88.90;;;;;;5052396;28;20031;-36
2024/01/18 03:11:46;;;;;;;19.70;11.13;;;0.30;89.00;;;;;;5052585;28;20064;-35
2024/01/18 03:14:11;;;;;;;20.75;11.27;;;0.30;89.10;;;;;;5052755;28;20025;-35
2024/01/18 03:16:42;;;;;;;20.02;11.38;;;0.20;89.00;;;;;;5052301;28;20027;-34
2024/01/18 03:19:11;;;;;;;17.33;10.07;;;0.30;89.10;;;;;;5051859;28;20028;-32
2024/01/18 03:21:37;;;;;;;19.38;10.88;;;0.20;89.20;;;;;;5052757;28;20381;-30
2024/01/18 03:24:06;;;;;;;15.48;10.07;;;0.20;89.20;;;;;;5052658;28;20025;-34
2024/01/18 03:26:32;;;;;;;19.75;11.63;;;0.20;89.20;;;;;;5052358;28;20549;-33
2024/01/18 03:28:58;;;;;;;19.67;11.65;;;0.20;89.20;;;;;;5052069;28;20116;-31
2024/01/18 03:31:23;;;;;;;18.00;11.18;;;0.20;89.20;;;;;;5052147;28;20067;-32
2024/01/18 03:33:49;;;;;;;16.45;10.05;;;0.20;89.20;;;;;;5052205;28;20041;-30
2024/01/18 03:36:14;;;;;;;17.98;10.55;;;0.10;89.20;;;;;;5052125;28;20060;-30
2024/01/18 03:38:40;;;;;;;16.75;10.43;;;0.10;89.20;;;;;;5052102;28;20026;-30
2024/01/18 03:41:06;;;;;;;17.27;9.88;;;0.10;89.30;;;;;;5052046;28;20103;-30
2024/01/18 03:43:31;;;;;;;14.07;9.52;;;0.10;89.30;;;;;;5051959;28;20021;-30
2024/01/18 03:45:57;;;;;;;17.10;9.43;;;0.10;89.40;;;;;;5051961;28;20496;-31
2024/01/18 03:48:22;;;;;;;16.52;9.70;;;0.10;89.40;;;;;;5051629;28;20048;-30
2024/01/18 03:50:48;;;;;;;12.25;7.93;;;0.10;89.40;;;;;;5052082;28;20052;-32
2024/01/18 03:53:13;;;;;;;16.45;8.70;;;0.10;89.50;;;;;;5051767;28;20021;-31
2024/01/18 03:55:39;;;;;;;15.10;8.07;;;0.10;89.40;;;;;;5051974;28;20021;-32
2024/01/18 03:58:04;;;;;;;13.73;8.68;;;0.10;89.40;;;;;;5051519;28;20068;-29
2024/01/18 04:00:30;;;;;;;18.67;8.57;;;0.10;89.50;;;;;;5051755;28;20021;-33
2024/01/18 04:02:56;;;;;;;14.30;8.30;;;0.20;89.40;;;;;;5051797;28;20025;-30
2024/01/18 04:05:21;;;;;;;16.48;7.53;;;0.10;89.30;;;;;;5051544;28;20141;-32
2024/01/18 04:07:47;;;;;;;11.20;7.47;;;0.10;89.40;;;;;;5051776;28;20021;-30
2024/01/18 04:10:12;;;;;;;12.93;8.05;;;0.10;89.30;;;;;;5051461;28;20053;-36
2024/01/18 04:12:38;;;;;;;12.60;7.90;;;0.10;89.20;;;;;;5051656;28;20021;-38
2024/01/18 04:15:05;;;;;;;12.77;7.60;;;0.10;89.30;;;;;;5051803;28;20470;-30
2024/01/18 04:17:31;;;;;;;14.23;8.10;;;0.10;89.30;;;;;;5051702;28;20045;-30
2024/01/18 04:19:57;;;;;;;17.98;8.05;;;0.10;89.30;;;;;;5051412;28;20159;-31
2024/01/18 04:22:23;;;;;;;17.50;9.10;;;0.10;89.40;;;;;;5051570;28;20440;-31
2024/01/18 04:24:49;;;;;;;14.38;7.05;;;0.10;89.40;;;;;;5050181;28;20017;-30
2024/01/18 04:27:14;;;;;;;11.90;7.15;;;0.00;89.30;;;;;;5050992;28;20090;-31
2024/01/18 04:29:40;;;;;;;11.68;6.70;;;0.00;89.30;;;;;;5051212;28;20021;-31
2024/01/18 04:32:06;;;;;;;11.25;7.32;;;0.00;89.40;;;;;;5051232;28;20040;-31
2024/01/18 04:34:31;;;;;;;12.98;7.40;;;0.00;89.40;;;;;;5051224;28;20049;-32
2024/01/18 04:36:57;;;;;;;13.23;6.85;;;0.00;89.30;;;;;;5051084;28;20496;-31
2024/01/18 04:39:22;;;;;;;11.30;7.15;;;0.00;89.40;;;;;;5051261;28;20028;-40
2024/01/18 04:41:48;;;;;;;12.02;6.45;;;0.00;89.40;;;;;;5051226;28;20381;-31
2024/01/18 04:44:14;;;;;;;12.55;7.53;;;0.00;89.40;;;;;;5051782;28;20021;-30
2024/01/18 04:46:39;;;;;;;15.40;6.63;;;-0.10;89.40;;;;;;5051154;28;20025;-33
2024/01/18 04:49:05;;;;;;;11.63;6.30;;;-0.10;90.00;;;;;;5051252;28;20025;-31
2024/01/18 04:51:30;;;;;;;12.00;6.15;;;-0.10;89.50;;;;;;5051286;28;20016;-31
2024/01/18 04:53:56;;;;;;;9.70;5.25;;;0.00;89.50;;;;;;5051018;28;20017;-31
2024/01/18 04:56:22;;;;;;;9.95;5.72;;;0.00;89.60;;;;;;5050894;28;20028;-35
2024/01/18 04:58:48;;;;;;;13.85;6.70;;;0.00;89.50;;;;;;5050959;28;20107;-33
2024/01/18 05:01:13;;;;;;;11.25;6.68;;;0.00;90.00;;;;;;5050810;28;20545;-33
2024/01/18 05:03:39;;;;;;;10.20;6.20;;;0.00;89.40;;;;;;5051224;28;20063;-31
2024/01/18 05:06:04;;;;;;;10.45;6.30;;;0.00;89.40;;;;;;5050789;28;20550;-37
2024/01/18 05:08:30;;;;;;;12.65;6.15;;;0.00;89.50;;;;;;5051042;28;20032;-31
2024/01/18 05:10:56;;;;;;;13.00;6.72;;;0.00;89.60;;;;;;5050807;28;20067;-30
2024/01/18 05:13:22;;;;;;;12.05;6.30;;;0.00;89.60;;;;;;5050715;28;20047;-30
2024/01/18 05:15:47;;;;;;;9.90;6.55;;;0.00;89.70;;;;;;5050889;28;20017;-30
2024/01/18 05:18:16;;;;;;;9.40;5.95;;;0.00;89.80;;;;;;5049542;28;20028;-38
2024/01/18 05:20:41;;;;;;;14.30;7.15;;;0.00;89.80;;;;;;5050798;28;20036;-34
2024/01/18 05:23:07;;;;;;;10.30;6.82;;;0.00;89.80;;;;;;5051010;28;20021;-34
2024/01/18 05:25:33;;;;;;;12.90;6.78;;;0.00;90.20;;;;;;5050581;28;20061;-35
2024/01/18 05:28:00;;;;;;;13.15;6.90;;;0.00;90.00;;;;;;5050110;28;20584;-32
2024/01/18 05:30:25;;;;;;;14.75;7.85;;;0.00;90.00;;;;;;5050954;28;20032;-31
2024/01/18 05:32:51;;;;;;;10.85;7.32;;;-0.10;90.00;;;;;;5050928;28;20029;-32
2024/01/18 05:35:17;;;;;;;12.35;6.47;;;-0.10;90.00;;;;;;5050533;28;20095;-36
2024/01/18 05:37:42;;;;;;;11.80;6.78;;;-0.10;90.10;;;;;;5050913;28;20025;-34
2024/01/18 05:40:09;;;;;;;10.52;6.53;;;-0.10;90.10;;;;;;5050690;28;20032;-30
2024/01/18 05:42:34;;;;;;;13.13;6.78;;;-0.10;90.10;;;;;;5054237;28;20021;-31
2024/01/18 05:45:00;;;;;;;10.65;6.45;;;-0.20;90.10;;;;;;5054353;28;20090;-32
2024/01/18 05:47:25;;;;;;;15.85;7.22;;;-0.20;90.20;;;;;;5053942;28;20029;-35
2024/01/18 05:49:51;;;;;;;13.70;7.13;;;-0.20;90.20;;;;;;5054412;28;20075;-32
2024/01/18 05:52:17;;;;;;;13.45;6.80;;;-0.20;90.20;;;;;;5054108;28;20538;-32
2024/01/18 05:54:42;;;;;;;11.07;6.70;;;-0.20;90.30;;;;;;5054006;28;20466;-35
2024/01/18 05:57:08;;;;;;;12.35;7.43;;;-0.20;90.30;;;;;;5035998;28;20100;-31
2024/01/18 05:59:34;;;;;;;11.50;6.55;;;-0.20;90.30;;;;;;5053819;28;20033;-32
2024/01/18 06:01:59;;;;;;;26.13;8.25;;;-0.30;90.30;;;;;;5054176;28;20025;-31
2024/01/18 06:04:25;;;;;;;11.98;6.43;;;-0.30;90.30;;;;;;5053758;28;20086;-32
2024/01/18 06:06:51;;;;;;;9.15;5.60;;;-0.30;90.60;;;;;;5053532;28;20017;-33
2024/01/18 06:09:18;;;;;;;15.63;6.20;;;-0.30;90.40;;;;;;5053477;28;20029;-30
2024/01/18 06:11:44;;;;;;;8.98;6.03;;;-0.20;90.50;;;;;;5052368;28;20021;-31
2024/01/18 06:14:10;;;;;;;11.00;7.20;;;-0.20;90.50;;;;;;5053852;28;20079;-31
2024/01/18 06:16:36;;;;;;;12.50;6.30;;;-0.20;90.50;;;;;;5053604;28;20024;-32
2024/01/18 06:19:02;;;;;;;13.60;6.65;;;-0.20;90.70;;;;;;5053836;28;20035;-33
2024/01/18 06:21:27;;;;;;;11.73;6.70;;;-0.20;90.50;;;;;;5053421;28;20024;-30
2024/01/18 06:23:53;;;;;;;14.60;6.40;;;-0.20;90.50;;;;;;5053549;28;20036;-31
2024/01/18 06:26:18;;;;;;;17.35;7.57;;;-0.30;90.50;;;;;;5053341;28;20100;-30
2024/01/18 06:28:44;;;;;;;11.77;6.32;;;-0.30;90.50;;;;;;5053351;28;20029;-30
2024/01/18 06:31:10;;;;;;;11.75;6.07;;;-0.30;90.50;;;;;;5052072;28;20074;-30
2024/01/18 06:33:35;;;;;;;10.32;5.50;;;-0.30;90.50;;;;;;5053477;28;20045;-31
2024/01/18 06:36:02;;;;;;;9.65;5.10;;;-0.30;90.60;;;;;;5053285;28;20024;-30
2024/01/18 06:38:28;;;;;;;9.88;6.03;;;-0.30;90.60;;;;;;5052183;28;20430;-30
2024/01/18 06:40:58;;;;;;;10.20;6.05;;;-0.30;90.60;;;;;;5053254;28;20105;-38
2024/01/18 06:43:25;;;;;;;11.88;6.97;;;-0.30;90.60;;;;;;5053432;28;20031;-32
2024/01/18 06:45:54;;;;;;;12.85;6.47;;;-0.30;90.60;;;;;;5053511;28;20024;-37
2024/01/18 06:48:20;;;;;;;11.30;6.10;;;-0.30;90.60;;;;;;5053364;28;20497;-40
2024/01/18 06:50:46;;;;;;;12.77;5.85;;;-0.20;90.70;;;;;;5053305;28;20122;-33
2024/01/18 06:53:11;;;;;;;16.55;6.32;;;-0.20;90.70;;;;;;5050573;28;20489;-32
2024/01/18 06:55:37;;;;;;;9.18;5.00;;;-0.20;90.70;;;;;;5053127;28;20028;-31
2024/01/18 06:58:03;;;;;;;7.75;5.05;;;-0.20;90.70;;;;;;5052858;28;20078;-32
2024/01/18 07:00:29;;;;;;;11.43;5.32;;;-0.20;90.70;;;;;;5053177;28;20107;-32
2024/01/18 07:02:54;;;;;;;10.20;5.15;;;-0.20;90.60;;;;;;5052693;28;20524;-31
2024/01/18 07:05:20;;;;;;;10.85;5.15;;;-0.20;90.60;;;;;;5052976;28;20331;-34
2024/01/18 07:07:46;;;;;;;8.15;5.38;;;-0.30;90.60;;;;;;5052856;28;20037;-32
2024/01/18 07:10:12;;;;;;;8.98;4.80;;;-0.30;90.60;;;;;;5052630;28;20028;-32
2024/01/18 07:12:37;;;;;;;8.65;5.68;;;-0.30;90.60;;;;;;5052656;28;20052;-30
2024/01/18 07:15:03;;;;;;;10.40;5.10;;;-0.30;90.70;;;;;;5052514;28;20057;-32
2024/01/18 07:17:29;;;;;;;10.60;5.40;;;-0.30;90.70;;;;;;5052349;28;20021;-45
2024/01/18 07:19:58;;;;;;;6.57;4.15;;;-0.30;90.70;;;;;;5052182;28;20021;-44
2024/01/18 07:22:25;;;;;;;7.38;3.63;;;-0.30;90.80;;;;;;5052290;28;20017;-43
2024/01/18 07:24:52;;;;;;;6.40;3.25;;;-0.20;90.80;;;;;;5052428;28;20017;-43
2024/01/18 07:27:17;;;;;;;13.23;3.78;;;-0.20;90.80;;;;;;5052401;28;20496;-45
2024/01/18 07:29:43;;;;;;;6.38;3.42;;;-0.10;90.80;;;;;;5052603;28;20029;-45
2024/01/18 07:32:09;;;;;;;7.72;4.40;;;0.00;90.70;;;;;;5052248;28;20057;-45
2024/01/18 07:34:35;;;;;;;7.20;4.10;;;0.00;90.70;;;;;;5052067;28;20053;-45
2024/01/18 07:37:01;;;;;;;8.05;4.30;;;0.00;90.60;;;;;;5052086;28;20068;-45
2024/01/18 07:39:27;;;;;;;8.18;4.25;;;-0.10;90.50;;;;;;5052098;28;20025;-35
2024/01/18 07:41:53;;;;;;;6.53;4.03;;;-0.10;90.60;;;;;;5052469;28;20155;-34
2024/01/18 07:44:19;;;;;;;9.25;4.32;;;0.00;90.60;;;;;;5052489;28;20031;-35
2024/01/18 07:46:45;;;;;;;6.90;3.70;;;-0.10;90.60;;;;;;5052070;28;20477;-35
2024/01/18 07:49:10;;;;;;;5.68;3.25;;;-0.10;90.60;;;;;;5051914;28;20532;-33
2024/01/18 07:51:36;;;;;;;7.70;3.78;;;-0.10;90.60;;;;;;5052021;28;20020;-35
2024/01/18 07:54:03;;;;;;;6.43;3.80;;;0.00;90.60;;;;;;5052026;28;20032;-33
2024/01/18 07:56:28;;;;;;;6.65;3.70;;;0.00;90.60;;;;;;5051671;28;20021;-35
2024/01/18 07:58:54;;;;;;;6.72;3.80;;;0.00;90.60;;;;;;5051784;28;20109;-35
2024/01/18 08:01:19;;;;;;;7.63;4.15;;;0.00;90.60;;;;;;5051770;28;20029;-36
2024/01/18 08:03:45;;;;;;;5.22;3.40;;;0.00;90.50;;;;;;5051568;28;20482;-36
2024/01/18 08:06:11;;;;;;;4.57;3.40;;;0.00;90.50;;;;;;5051335;28;20028;-35
2024/01/18 08:08:40;;;;;;;7.82;3.70;;;0.00;90.50;;;;;;5051475;28;20079;-36
2024/01/18 08:11:10;;;;;;;8.63;3.83;;;0.10;90.50;;;;;;5051563;28;20024;-35
2024/01/18 08:13:36;;;;;;;10.23;4.03;;;0.10;90.50;;;;;;5051922;28;20040;-35
2024/01/18 08:16:02;;;;;;;9.32;4.45;;;0.10;90.50;;;;;;5052130;28;20489;-34
2024/01/18 08:18:27;;;;;;;8.30;3.85;;;0.10;90.40;;;;;;5051872;28;20021;-36
2024/01/18 08:20:53;;;;;;;8.98;3.90;;;0.10;90.50;;;;;;5051678;28;20029;-35
2024/01/18 08:23:19;;;;;;;7.32;3.30;;;0.10;90.30;;;;;;5051916;28;20382;-36
2024/01/18 08:25:44;;;;;;;7.03;3.00;;;0.10;90.30;;;;;;5051435;28;20493;-36
2024/01/18 08:28:13;;;;;;;11.23;3.75;;;0.20;90.30;;;;;;5051318;28;20357;-35
2024/01/18 08:30:40;;;;;;;8.25;3.50;;;0.20;90.30;;;;;;5051733;28;20469;-34
2024/01/18 08:33:08;;;;;;;8.02;3.67;;;0.30;90.30;;;;;;5051259;28;20061;-36
2024/01/18 08:35:34;;;;;;;4.70;3.33;;;0.20;90.30;;;;;;5051802;28;20053;-36
2024/01/18 08:38:00;;;;;;;8.65;3.47;;;0.30;90.20;;;;;;5033684;28;20077;-36
2024/01/18 08:40:25;;;;;;;8.63;3.47;;;0.30;90.20;;;;;;5051798;28;20080;-36
2024/01/18 08:42:51;;;;;;;6.47;3.08;;;0.40;90.50;;;;;;5051377;28;20485;-35
2024/01/18 08:45:18;;;;;;;8.50;3.25;;;0.40;90.30;;;;;;5050093;28;20036;-35
2024/01/18 08:47:44;;;;;;;4.88;3.13;;;0.50;90.20;;;;;;5051214;28;20040;-35
2024/01/18 08:50:10;;;;;;;9.18;2.95;;;0.60;90.20;;;;;;5051215;28;20112;-35
2024/01/18 08:52:35;;;;;;;4.70;3.13;;;0.60;90.10;;;;;;5051352;28;20057;-35
2024/01/18 08:55:02;;;;;;;8.85;2.80;;;0.70;90.20;;;;;;5051448;28;20082;-34
2024/01/18 08:57:29;;;;;;;7.90;2.60;;;0.80;90.10;;;;;;5051305;28;20492;-35
2024/01/18 08:59:55;;;;;;;5.50;2.80;;;0.90;90.10;;;;;;5051166;28;20041;-34
2024/01/18 09:02:21;;;;;;;7.85;2.55;;;0.90;90.00;;;;;;5051058;28;20154;-35
2024/01/18 09:04:46;;;;;;;6.82;2.60;;;1.00;90.00;;;;;;5050953;28;20072;-35
2024/01/18 09:07:12;;;;;;;5.53;2.50;;;1.10;90.00;;;;;;5051290;28;20028;-34
2024/01/18 09:09:37;;;;;;;5.80;2.50;;;1.10;90.00;;;;;;5051087;28;20389;-35
2024/01/18 09:12:03;;;;;;;5.45;2.10;;;1.20;89.90;;;;;;5051205;28;20021;-34
2024/01/18 09:14:29;;;;;;;2.92;2.13;;;1.30;89.80;;;;;;5051080;28;20082;-35
2024/01/18 09:16:54;;;;;;;3.25;1.88;;;1.40;89.70;;;;;;5053803;28;20032;-35
2024/01/18 09:19:20;;;;;;;2.70;1.80;;;1.50;89.60;;;;;;5054948;28;20449;-36
2024/01/18 09:21:46;;;;;;;2.63;1.50;;;1.50;89.40;;;;;;5055034;28;20064;-36
2024/01/18 09:24:13;;;;;;;2.42;1.50;;;1.60;89.20;;;;;;5055184;28;20028;-35
2024/01/18 09:26:38;;;;;;;2.40;1.45;;;1.70;89.10;;;;;;5054751;28;20032;-36
2024/01/18 09:29:04;;;;;;;3.65;1.70;;;1.70;89.00;;;;;;5053478;28;20452;-35
2024/01/18 09:31:29;;;;;;;3.95;1.80;;;1.80;88.90;;;;;;5054686;28;20025;-36
2024/01/18 09:33:55;;;;;;;4.13;1.88;;;1.80;88.80;;;;;;5054478;28;20106;-36
2024/01/18 09:36:21;;;;;;;4.68;2.00;;;1.90;88.70;;;;;;5054830;28;20434;-36
2024/01/18 09:38:49;;;;;;;5.80;2.13;;;1.90;88.50;;;;;;5054772;28;20029;-35
2024/01/18 09:41:18;;;;;;;4.50;2.00;;;2.00;88.50;;;;;;5054506;28;20040;-35
2024/01/18 09:43:45;;;;;;;5.93;2.25;;;2.00;88.30;;;;;;5054584;28;20033;-36
2024/01/18 09:46:11;;;;;;;10.35;2.80;;;2.10;88.30;;;;;;5054642;28;20036;-36
2024/01/18 09:48:38;;;;;;;6.30;3.10;;;2.10;88.10;;;;;;5054468;28;20036;-36
2024/01/18 09:51:06;;;;;;;4.95;2.60;;;2.20;88.10;;;;;;5054606;28;20470;-34
2024/01/18 09:53:33;;;;;;;7.15;2.20;;;2.20;88.00;;;;;;5054250;28;20025;-36
2024/01/18 09:56:06;;;;;;;5.47;2.58;;;2.30;87.90;;;;;;5054155;28;20025;-36
2024/01/18 09:58:32;;;;;;;6.13;2.50;;;2.30;87.80;;;;;;5054321;28;20033;-35
2024/01/18 10:00:59;;;;;;;4.97;2.05;;;2.30;87.60;;;;;;5054218;28;20278;-35
2024/01/18 10:03:25;;;;;;;5.78;2.45;;;2.40;87.50;;;;;;5054180;28;20116;-35
2024/01/18 10:05:51;;;;;;;7.57;2.20;;;2.50;87.30;;;;;;5054300;28;20043;-36
2024/01/18 10:08:17;;;;;;;7.60;2.40;;;2.50;87.10;;;;;;5053774;28;20033;-35
2024/01/18 10:10:43;;;;;;;6.47;2.50;;;2.50;87.00;;;;;;5054017;28;20104;-34
2024/01/18 10:13:13;;;;;;;5.72;2.65;;;2.60;86.90;;;;;;5053932;28;20560;-35
2024/01/18 10:15:39;;;;;;;3.42;2.13;;;2.60;86.70;;;;;;5053911;28;20055;-35
2024/01/18 10:18:06;;;;;;;4.75;2.38;;;2.60;86.60;;;;;;5054051;28;20075;-36
2024/01/18 10:20:32;;;;;;;4.32;1.90;;;2.70;86.50;;;;;;5053658;28;20024;-35
2024/01/18 10:22:58;;;;;;;5.60;2.08;;;2.70;86.40;;;;;;5053757;28;20056;-35
2024/01/18 10:25:26;;;;;;;3.88;1.88;;;2.80;86.30;;;;;;5054079;28;20031;-36
2024/01/18 10:27:53;;;;;;;6.97;1.95;;;2.80;85.90;;;;;;5053174;28;20116;-34
2024/01/18 10:30:19;;;;;;;4.93;2.03;;;2.80;85.70;;;;;;5053647;28;20042;-35
2024/01/18 10:32:45;;;;;;;3.85;2.00;;;2.80;85.40;;;;;;5053418;28;20028;-35
2024/01/18 10:35:24;;;;;;;1.98;1.52;;;2.80;85.20;;;;;;5053404;28;20055;-36
2024/01/18 10:38:04;;;;;;;5.90;1.85;;;2.80;85.20;;;;;;5053738;28;20033;-36
2024/01/18 10:40:31;;;;;;;4.32;1.67;;;2.80;85.20;;;;;;5052248;28;20396;-35
2024/01/18 10:42:58;;;;;;;3.90;1.60;;;2.90;85.20;;;;;;5053627;28;20052;-35
2024/01/18 10:45:26;;;;;;;5.68;1.67;;;2.90;85.10;;;;;;5053186;28;20036;-35
2024/01/18 10:47:55;;;;;;;6.32;1.88;;;2.90;84.90;;;;;;5053387;28;20492;-35
2024/01/18 10:50:21;;;;;;;5.03;2.10;;;3.00;84.70;;;;;;5053387;28;20066;-36
2024/01/18 10:52:48;;;;;;;5.63;2.60;;;3.00;84.60;;;;;;5053224;28;20544;-35
2024/01/18 10:55:13;;;;;;;4.53;2.05;;;3.10;84.30;;;;;;5053344;28;20017;-35
2024/01/18 10:57:40;;;;;;;6.78;2.70;;;3.10;84.30;;;;;;5052786;28;20102;-35
2024/01/18 11:00:06;;;;;;;8.43;3.42;;;3.10;84.60;;;;;;5053417;28;20017;-35
2024/01/18 11:02:35;;;;;;;5.32;2.83;;;3.20;84.00;;;;;;5052834;28;20067;-36
2024/01/18 11:05:01;;;;;;;6.20;2.83;;;3.20;83.90;;;;;;5053235;28;20066;-36
2024/01/18 11:07:27;;;;;;;4.57;2.45;;;3.20;83.90;;;;;;5052680;28;20508;-35
2024/01/18 11:09:54;;;;;;;5.18;2.70;;;3.30;83.80;;;;;;5053201;28;20481;-35
2024/01/18 11:12:22;;;;;;;6.60;2.78;;;3.30;83.60;;;;;;5053038;28;20100;-35
2024/01/18 11:14:48;;;;;;;6.80;2.53;;;3.30;83.00;;;;;;5052672;28;20025;-35
2024/01/18 11:17:17;;;;;;;5.30;2.15;;;3.30;83.20;;;;;;5052616;28;20047;-36
2024/01/18 11:19:44;;;;;;;5.85;2.67;;;3.40;82.50;;;;;;5052657;28;20013;-36
2024/01/18 11:22:30;;;;;;;4.47;2.70;;;3.40;82.50;;;;;;5052464;28;20436;-36
2024/01/18 11:25:17;;;;;;;4.95;2.50;;;3.40;82.50;;;;;;5052350;28;20032;-35
2024/01/18 11:27:43;;;;;;;4.03;2.70;;;3.50;82.10;;;;;;5052327;28;20477;-35
2024/01/18 11:30:35;;;;;;;9.82;2.65;;;3.60;82.00;;;;;;5052744;28;20024;-35
2024/01/18 11:33:02;;;;;;;7.47;3.10;;;3.60;82.00;;;;;;5051102;28;20024;-36
2024/01/18 11:35:29;;;;;;;6.80;3.10;;;3.60;81.40;;;;;;5051228;28;20558;-34
2024/01/18 11:38:20;;;;;;;5.15;2.60;;;3.70;81.30;;;;;;5051789;28;20025;-34
2024/01/18 11:40:46;;;;;;;4.88;2.50;;;3.80;81.30;;;;;;5052409;28;20367;-35
2024/01/18 11:43:13;;;;;;;8.27;2.53;;;3.80;80.70;;;;;;5052073;28;20025;-34
2024/01/18 11:45:38;;;;;;;4.07;2.40;;;3.80;80.70;;;;;;5051986;28;20464;-34
2024/01/18 11:48:04;;;;;;;2.97;1.77;;;3.90;80.80;;;;;;5052061;28;20052;-34
2024/01/18 11:50:30;;;;;;;4.15;2.42;;;3.90;80.70;;;;;;5051993;28;20036;-34
2024/01/18 11:52:57;;;;;;;5.32;2.20;;;3.90;80.10;;;;;;5051992;28;20021;-35
2024/01/18 11:55:24;;;;;;;5.07;2.20;;;4.00;80.10;;;;;;5052445;28;20021;-35
2024/01/18 11:57:52;;;;;;;5.97;2.05;;;4.00;79.80;;;;;;5052056;28;20028;-35
2024/01/18 12:00:19;;;;;;;4.78;2.17;;;4.10;79.90;;;;;;5052233;28;20029;-35
2024/01/18 12:02:45;;;;;;;5.32;2.63;;;4.20;79.80;;;;;;5051708;28;20071;-34
2024/01/18 12:05:10;;;;;;;3.10;2.20;;;4.20;79.80;;;;;;5052033;28;20053;-36
2024/01/18 12:07:36;;;;;;;5.13;1.92;;;4.30;79.30;;;;;;5051897;28;20021;-35
2024/01/18 12:10:02;;;;;;;5.75;2.20;;;4.40;78.80;;;;;;5051792;28;20024;-36
2024/01/18 12:12:28;;;;;;;4.90;2.13;;;4.50;78.60;;;;;;5051749;28;20108;-36
2024/01/18 12:14:53;;;;;;;4.97;1.98;;;4.60;77.80;;;;;;5050641;28;20028;-33
2024/01/18 12:17:19;;;;;;;6.05;2.30;;;4.60;77.00;;;;;;5051894;28;20424;-35
2024/01/18 12:19:46;;;;;;;4.85;2.05;;;4.70;76.70;;;;;;5051610;28;20043;-35
2024/01/18 12:22:17;;;;;;;9.40;2.28;;;4.70;76.60;;;;;;5051543;28;20035;-35
2024/01/18 12:24:44;;;;;;;3.97;1.80;;;4.70;77.20;;;;;;5052032;28;20483;-35
2024/01/18 12:27:10;;;;;;;4.75;1.92;;;4.60;76.70;;;;;;5051297;28;20021;-35
2024/01/18 12:29:38;;;;;;;3.58;2.28;;;4.60;76.40;;;;;;5051727;28;20107;-35
2024/01/18 12:32:04;;;;;;;4.72;1.85;;;4.60;76.30;;;;;;5051834;28;20389;-35
2024/01/18 12:34:32;;;;;;;6.57;2.20;;;4.60;76.50;;;;;;5051570;28;20076;-35
2024/01/18 12:36:59;;;;;;;5.20;2.13;;;4.50;76.40;;;;;;5051711;28;20437;-34
2024/01/18 12:39:24;;;;;;;3.67;1.70;;;4.50;76.30;;;;;;5051523;28;20025;-35
2024/01/18 12:41:52;;;;;;;7.63;2.00;;;4.50;76.40;;;;;;5051523;28;20428;-36
2024/01/18 12:44:18;;;;;;;5.20;2.05;;;4.40;76.80;;;;;;5051328;28;20029;-35